WetterOnline ( https://www.wetteronline.de )

Wetter aktuell Ostseebad Ahrenshoop

Aktuelles Wetter: Rostock-Warnemünde (10m)

6-stündlich | Neueste Meldungen
Ortszeit Temperatur Wetter
Mi, 27.05. 2:00 11.6° C wolkig
Di, 26.05. 20:00 14.5° C wolkenlos
Di, 26.05. 14:00 13.9° C fast wolkenlos
Di, 26.05. 8:00 13.1° C wolkenlos
Di, 26.05. 2:00 10.6° C fast wolkenlos
Mo, 25.05. 20:00 13.9° C wolkenlos
Mo, 25.05. 14:00 12.8° C bedeckt
Mo, 25.05. 8:00 11.3° C bedeckt
Ortszeit Temperatur Wetter
Mi, 27.05. 6:00 11.3° C fast wolkenlos
Mi, 27.05. 5:50 11.3° C fast wolkenlos
Mi, 27.05. 5:40 11.3° C leicht bewölkt
Mi, 27.05. 5:30 11.1° C leicht bewölkt
Mi, 27.05. 5:20 11.1° C leicht bewölkt
Mi, 27.05. 5:10 11.1° C leicht bewölkt
Mi, 27.05. 5:00 11.1° C leicht bewölkt
Mi, 27.05. 4:30 11.4° C wolkenlos
Mi, 27.05. 4:00 11.4° C wolkenlos
Mi, 27.05. 3:30 11.4° C wolkenlos
Mi, 27.05. 3:00 11.3° C fast wolkenlos
Ortszeit Relative Feuchte Sichtweite
Mi, 27.05. 2:00 84% 24 km
Di, 26.05. 20:00 80% 35 km
Di, 26.05. 14:00 80% 29 km
Di, 26.05. 8:00 83% 35 km
Di, 26.05. 2:00 92% 16 km
Mo, 25.05. 20:00 82% 40 km
Mo, 25.05. 14:00 81% 28 km
Mo, 25.05. 8:00 83% 27 km
Ortszeit Relative Feuchte Sichtweite
Mi, 27.05. 6:00 78% 30 km
Mi, 27.05. 5:50 78% -
Mi, 27.05. 5:40 78% -
Mi, 27.05. 5:30 80% 35 km
Mi, 27.05. 5:20 80% -
Mi, 27.05. 5:10 81% -
Mi, 27.05. 5:00 82% 30 km
Mi, 27.05. 4:30 80% 30 km
Mi, 27.05. 4:00 80% 30 km
Mi, 27.05. 3:30 81% 30 km
Mi, 27.05. 3:00 83% 24 km
Ortszeit Niederschlagsmenge Niederschlagsart
Mi, 27.05. 2:00 0.0 l/m2 in 6 Std. -
Di, 26.05. 20:00 0.0 l/m2 in 12 Std. -
Di, 26.05. 14:00 0.0 l/m2 in 6 Std. -
Di, 26.05. 8:00 0.0 l/m2 in 12 Std. -
Di, 26.05. 2:00 0.0 l/m2 in 6 Std. -
Mo, 25.05. 20:00 0.1 l/m2 in 12 Std. -
Mo, 25.05. 14:00 0.1 l/m2 in 6 Std. Regen, Niederschlag
Mo, 25.05. 8:00 3 l/m2 in 12 Std. Regen
Ortszeit Niederschlagsmenge Niederschlagsart
Mi, 27.05. 6:00 0.0 l/m2 in 1 Std. -
Mi, 27.05. 5:50 keine Meldung -
Mi, 27.05. 5:40 keine Meldung -
Mi, 27.05. 5:30 0.0 l/m2 in 1 Std. -
Mi, 27.05. 5:20 keine Meldung -
Mi, 27.05. 5:10 keine Meldung -
Mi, 27.05. 5:00 0.0 l/m2 in 1 Std. -
Mi, 27.05. 4:30 0.0 l/m2 in 1 Std. -
Mi, 27.05. 4:00 0.0 l/m2 in 1 Std. -
Mi, 27.05. 3:30 0.0 l/m2 in 1 Std. -
Mi, 27.05. 3:00 0.0 l/m2 in 1 Std. -
Ortszeit Stärke Spitze Richtung
km/h Bft. km/h Grad Sektor
Mi, 27.05. 2:00 11 2 11 190° S
Di, 26.05. 20:00 7 2 22 320° NW
Di, 26.05. 14:00 19 3 22 300° NW
Di, 26.05. 8:00 11 2 22 320° NW
Di, 26.05. 2:00 4 1 18 260° W
Mo, 25.05. 20:00 13 3 43 300° NW
Mo, 25.05. 14:00 35 5 52 300° NW
Mo, 25.05. 8:00 43 6 63 310° NW
Ortszeit Stärke Spitze Richtung
km/h Bft. km/h Grad Sektor
Mi, 27.05. 6:00 13 3 15 180° S
Mi, 27.05. 5:50 13 3 - 180° S
Mi, 27.05. 5:40 13 3 - 180° S
Mi, 27.05. 5:30 11 2 14 180° S
Mi, 27.05. 5:20 11 2 - 180° S
Mi, 27.05. 5:10 11 2 - 170° S
Mi, 27.05. 5:00 11 2 15 180° S
Mi, 27.05. 4:30 9 2 15 170° S
Mi, 27.05. 4:00 11 2 14 170° S
Mi, 27.05. 3:30 11 2 14 170° S
Mi, 27.05. 3:00 9 2 13 190° S
Ortszeit Untergrenze Bedeckung Gattung
total tief tief mittel hoch
Mi, 27.05. 2:00 7200 m 8/8 0/8 - - -
Di, 26.05. 20:00 6600 m 0/8 0/8 - - -
Di, 26.05. 14:00 150 m 1/8 1/8 - - -
Di, 26.05. 8:00 - 0/8 0/8 - - -
Di, 26.05. 2:00 1800 m 0/8 0/8 - - -
Mo, 25.05. 20:00 - 0/8 0/8 - - -
Mo, 25.05. 14:00 1140 m 8/8 8/8 - - -
Mo, 25.05. 8:00 510 m 8/8 8/8 - - -
Ortszeit Bedeckungsgrad in Achtel und Wolkenuntergrenze
Mi, 27.05. 6:00 2(10500m)
Mi, 27.05. 5:50 2(10500m)
Mi, 27.05. 5:40 1(4200m) 3(10500m)
Mi, 27.05. 5:30 4(4200m) 5(10500m)
Mi, 27.05. 5:20 4(4200m)
Mi, 27.05. 5:10 2(4200m) 3(10500m)
Mi, 27.05. 5:00 6(10500m) 4(10500m)
Mi, 27.05. 4:30 2(10500m)
Mi, 27.05. 4:00 keine Wolken
Mi, 27.05. 3:30 keine Wolken
Mi, 27.05. 3:00 1(6600m)
Ortszeit Luftdruck NN (hPa) Tendenz (hPa in 3 Std.)
Mi, 27.05. 2:00 1034 - 0,7
Di, 26.05. 20:00 1035 - 0,6
Di, 26.05. 14:00 1036 + 0,1
Di, 26.05. 8:00 1035 + 1,3
Di, 26.05. 2:00 1033 + 0,7
Mo, 25.05. 20:00 1031 + 1,2
Mo, 25.05. 14:00 1028 + 1,8
Mo, 25.05. 8:00 1025 + 1,5
Ortszeit Luftdruck NN (hPa) Tendenz (hPa in 3 Std.)
Mi, 27.05. 6:00 1033 - 1,0
Mi, 27.05. 5:50 1033 keine Meldung
Mi, 27.05. 5:40 1033 keine Meldung
Mi, 27.05. 5:30 1033 - 1,0
Mi, 27.05. 5:20 1033 keine Meldung
Mi, 27.05. 5:10 1033 keine Meldung
Mi, 27.05. 5:00 1034 - 0,8
Mi, 27.05. 4:30 1034 - 0,9
Mi, 27.05. 4:00 1034 - 1,0
Mi, 27.05. 3:30 1034 - 0,8
Mi, 27.05. 3:00 1034 - 0,5
Ortszeit Schneehöhe (cm)
Mi, 27.05. 2:00 -
Di, 26.05. 20:00 -
Di, 26.05. 14:00 -
Di, 26.05. 8:00 -
Di, 26.05. 2:00 -
Mo, 25.05. 20:00 -
Mo, 25.05. 14:00 -
Mo, 25.05. 8:00 -
Ortszeit Schneehöhe (cm)
Mi, 27.05. 6:00 -
Mi, 27.05. 5:50 -
Mi, 27.05. 5:40 -
Mi, 27.05. 5:30 -
Mi, 27.05. 5:20 -
Mi, 27.05. 5:10 -
Mi, 27.05. 5:00 -
Mi, 27.05. 4:30 -
Mi, 27.05. 4:00 -
Mi, 27.05. 3:30 -
Mi, 27.05. 3:00 -
Link zu dieser Seite / Seite empfehlen

Das Wetter in ...